LiveATC.Net - Listen to live air traffic control over the Internet! Contact for advertising information

ICAO: CYHU  IATA: YHU   Airport: Saint-Hubert Airport
City: Montreal   State/Province: Quebec
Country: Canada   Continent: North America
CYHU METAR Weather: CYHU 100300Z AUTO 26008KT 9SM FEW038 07/06 A2993 RMK SLP136
CYHU Flight Activity (FlightAware)
CYHU Tower #1
Feed Status: UP   Listeners: 2
Listen right in your browser - requires Flash (in browser, requires Flash)
Click here to listen with your own player (launches your MP3 player)
CYHU Tower #1 Audio Archives
Saint-Hubert Tower118.400
Saint-Hubert Tower121.300

Sponsored by: Air High Way


Unauthorized use prohibited. See Terms of Service

Find LiveATC Audio Streams

Airport/ARTCC Code

(e.g., 124.400, 128.75)
Site-wide search

Browse LiveATC Feeds
LiveATC Coverage Map
Top 50 LiveATC Feeds
Bad Weather Areas

Offer a LiveATC Feed
Press Inquiries

LiveATC on iPhone
LiveATC on Android

Windows Phone
Windows 8/10

LiveATC Mobile
(Mobile browser)

ATC Audio Archives
Interesting Recordings

LiveATC Forums

Home Page
Make a Donation
LiveATC Bookstore

Terms of Use
Privacy Policy

ATC/Radar Sites
U.S. ARTCC Freqs
Canadian Air Freqs


FAA Airport Status
Nat'l Airspace Status
Arrival Demand Charts

Server Software By:

Please make a donation to help us keep growing!